sensor_id;sensor_type;location;lat;lon;timestamp;P1;durP1;ratioP1;P2;durP2;ratioP2
3627;SDS011;1830;49.000;12.074;2024-01-06T00:01:23;26.80;;;15.23;;
3627;SDS011;1830;49.000;12.074;2024-01-06T00:03:51;31.37;;;18.40;;
3627;SDS011;1830;49.000;12.074;2024-01-06T00:06:18;26.83;;;16.67;;
3627;SDS011;1830;49.000;12.074;2024-01-06T00:08:45;32.13;;;18.03;;
3627;SDS011;1830;49.000;12.074;2024-01-06T00:11:12;26.13;;;16.30;;
3627;SDS011;1830;49.000;12.074;2024-01-06T00:13:38;27.80;;;15.70;;
3627;SDS011;1830;49.000;12.074;2024-01-06T00:16:05;30.27;;;17.70;;
3627;SDS011;1830;49.000;12.074;2024-01-06T00:18:32;24.20;;;16.80;;
3627;SDS011;1830;49.000;12.074;2024-01-06T00:21:00;30.73;;;16.57;;
3627;SDS011;1830;49.000;12.074;2024-01-06T00:23:27;26.67;;;17.47;;
3627;SDS011;1830;49.000;12.074;2024-01-06T00:25:54;31.60;;;16.93;;
3627;SDS011;1830;49.000;12.074;2024-01-06T00:28:20;28.40;;;16.90;;
3627;SDS011;1830;49.000;12.074;2024-01-06T00:30:47;24.03;;;16.23;;
3627;SDS011;1830;49.000;12.074;2024-01-06T00:33:14;30.23;;;17.30;;
3627;SDS011;1830;49.000;12.074;2024-01-06T00:35:41;29.33;;;17.10;;
3627;SDS011;1830;49.000;12.074;2024-01-06T00:38:09;30.20;;;17.13;;
3627;SDS011;1830;49.000;12.074;2024-01-06T00:40:36;33.23;;;16.73;;
3627;SDS011;1830;49.000;12.074;2024-01-06T00:43:03;26.83;;;16.97;;
3627;SDS011;1830;49.000;12.074;2024-01-06T00:45:30;30.27;;;16.67;;
3627;SDS011;1830;49.000;12.074;2024-01-06T00:47:57;26.37;;;16.80;;
3627;SDS011;1830;49.000;12.074;2024-01-06T00:50:24;28.30;;;16.63;;
3627;SDS011;1830;49.000;12.074;2024-01-06T00:52:50;27.10;;;17.63;;
3627;SDS011;1830;49.000;12.074;2024-01-06T00:55:19;27.57;;;17.80;;
3627;SDS011;1830;49.000;12.074;2024-01-06T00:57:46;29.40;;;17.90;;
3627;SDS011;1830;49.000;12.074;2024-01-06T01:00:13;31.27;;;18.60;;
3627;SDS011;1830;49.000;12.074;2024-01-06T01:02:40;28.73;;;18.50;;
3627;SDS011;1830;49.000;12.074;2024-01-06T01:05:07;25.67;;;16.73;;
3627;SDS011;1830;49.000;12.074;2024-01-06T01:07:34;25.10;;;17.20;;
3627;SDS011;1830;49.000;12.074;2024-01-06T01:10:01;25.27;;;17.53;;
3627;SDS011;1830;49.000;12.074;2024-01-06T01:12:29;24.27;;;18.17;;
3627;SDS011;1830;49.000;12.074;2024-01-06T01:14:56;29.87;;;18.77;;
3627;SDS011;1830;49.000;12.074;2024-01-06T01:17:23;28.87;;;16.83;;
3627;SDS011;1830;49.000;12.074;2024-01-06T01:19:50;27.27;;;17.43;;
3627;SDS011;1830;49.000;12.074;2024-01-06T01:22:17;26.00;;;16.90;;
3627;SDS011;1830;49.000;12.074;2024-01-06T01:24:44;34.07;;;17.90;;
3627;SDS011;1830;49.000;12.074;2024-01-06T01:27:11;33.33;;;18.90;;
3627;SDS011;1830;49.000;12.074;2024-01-06T01:29:39;29.90;;;18.07;;
3627;SDS011;1830;49.000;12.074;2024-01-06T01:32:06;30.23;;;17.70;;
3627;SDS011;1830;49.000;12.074;2024-01-06T01:34:32;29.90;;;17.77;;
3627;SDS011;1830;49.000;12.074;2024-01-06T01:36:59;29.77;;;19.27;;
3627;SDS011;1830;49.000;12.074;2024-01-06T01:39:26;30.70;;;18.80;;
3627;SDS011;1830;49.000;12.074;2024-01-06T01:41:53;28.13;;;18.63;;
3627;SDS011;1830;49.000;12.074;2024-01-06T01:44:20;41.43;;;20.73;;
3627;SDS011;1830;49.000;12.074;2024-01-06T01:46:48;31.33;;;19.10;;
3627;SDS011;1830;49.000;12.074;2024-01-06T01:49:15;34.03;;;20.43;;
3627;SDS011;1830;49.000;12.074;2024-01-06T01:51:42;31.13;;;18.90;;
3627;SDS011;1830;49.000;12.074;2024-01-06T01:54:09;29.30;;;17.23;;
3627;SDS011;1830;49.000;12.074;2024-01-06T01:56:36;32.70;;;18.90;;
3627;SDS011;1830;49.000;12.074;2024-01-06T01:59:07;32.47;;;19.50;;
3627;SDS011;1830;49.000;12.074;2024-01-06T02:01:36;26.57;;;17.13;;
3627;SDS011;1830;49.000;12.074;2024-01-06T02:04:05;33.53;;;18.70;;
3627;SDS011;1830;49.000;12.074;2024-01-06T02:06:32;32.07;;;17.53;;
3627;SDS011;1830;49.000;12.074;2024-01-06T02:08:59;36.93;;;19.17;;
3627;SDS011;1830;49.000;12.074;2024-01-06T02:11:27;35.17;;;18.70;;
3627;SDS011;1830;49.000;12.074;2024-01-06T02:13:53;32.33;;;18.60;;
3627;SDS011;1830;49.000;12.074;2024-01-06T02:16:20;32.87;;;19.00;;
3627;SDS011;1830;49.000;12.074;2024-01-06T02:18:47;38.43;;;20.43;;
3627;SDS011;1830;49.000;12.074;2024-01-06T02:21:15;38.07;;;18.90;;
3627;SDS011;1830;49.000;12.074;2024-01-06T02:23:46;36.33;;;18.43;;
3627;SDS011;1830;49.000;12.074;2024-01-06T02:26:13;31.63;;;19.30;;
3627;SDS011;1830;49.000;12.074;2024-01-06T02:28:40;32.20;;;18.37;;
3627;SDS011;1830;49.000;12.074;2024-01-06T02:31:09;32.70;;;19.60;;
3627;SDS011;1830;49.000;12.074;2024-01-06T02:33:36;33.80;;;19.00;;
3627;SDS011;1830;49.000;12.074;2024-01-06T02:36:03;33.27;;;19.07;;
3627;SDS011;1830;49.000;12.074;2024-01-06T02:38:30;38.50;;;19.70;;
3627;SDS011;1830;49.000;12.074;2024-01-06T02:40:58;28.50;;;18.77;;
3627;SDS011;1830;49.000;12.074;2024-01-06T02:43:24;34.20;;;18.50;;
3627;SDS011;1830;49.000;12.074;2024-01-06T02:45:51;32.20;;;18.60;;
3627;SDS011;1830;49.000;12.074;2024-01-06T02:48:18;35.50;;;18.60;;
3627;SDS011;1830;49.000;12.074;2024-01-06T02:50:44;34.40;;;20.30;;
3627;SDS011;1830;49.000;12.074;2024-01-06T02:53:11;42.40;;;21.03;;
3627;SDS011;1830;49.000;12.074;2024-01-06T02:55:38;32.10;;;19.07;;
3627;SDS011;1830;49.000;12.074;2024-01-06T02:58:06;35.50;;;20.37;;
3627;SDS011;1830;49.000;12.074;2024-01-06T03:00:33;34.30;;;20.53;;
3627;SDS011;1830;49.000;12.074;2024-01-06T03:03:00;30.23;;;19.20;;
3627;SDS011;1830;49.000;12.074;2024-01-06T03:05:27;36.40;;;19.30;;
3627;SDS011;1830;49.000;12.074;2024-01-06T03:07:53;31.63;;;18.97;;
3627;SDS011;1830;49.000;12.074;2024-01-06T03:10:20;32.80;;;18.70;;
3627;SDS011;1830;49.000;12.074;2024-01-06T03:12:47;31.90;;;19.90;;
3627;SDS011;1830;49.000;12.074;2024-01-06T03:15:15;32.43;;;20.27;;
3627;SDS011;1830;49.000;12.074;2024-01-06T03:17:42;30.90;;;20.50;;
3627;SDS011;1830;49.000;12.074;2024-01-06T03:20:09;37.43;;;20.20;;
3627;SDS011;1830;49.000;12.074;2024-01-06T03:22:36;43.30;;;19.83;;
3627;SDS011;1830;49.000;12.074;2024-01-06T03:25:03;35.80;;;20.30;;
3627;SDS011;1830;49.000;12.074;2024-01-06T03:27:31;30.60;;;19.23;;
3627;SDS011;1830;49.000;12.074;2024-01-06T03:29:58;31.00;;;18.40;;
3627;SDS011;1830;49.000;12.074;2024-01-06T03:32:26;30.87;;;18.73;;
3627;SDS011;1830;49.000;12.074;2024-01-06T03:34:53;32.00;;;18.67;;
3627;SDS011;1830;49.000;12.074;2024-01-06T03:37:20;35.40;;;19.97;;
3627;SDS011;1830;49.000;12.074;2024-01-06T03:39:47;41.07;;;20.37;;
3627;SDS011;1830;49.000;12.074;2024-01-06T03:42:14;29.10;;;19.73;;
3627;SDS011;1830;49.000;12.074;2024-01-06T03:44:40;31.83;;;20.73;;
3627;SDS011;1830;49.000;12.074;2024-01-06T03:47:07;33.90;;;22.00;;
3627;SDS011;1830;49.000;12.074;2024-01-06T03:49:35;34.97;;;20.30;;
3627;SDS011;1830;49.000;12.074;2024-01-06T03:52:02;36.03;;;21.00;;
3627;SDS011;1830;49.000;12.074;2024-01-06T03:54:29;33.37;;;21.00;;
3627;SDS011;1830;49.000;12.074;2024-01-06T03:56:56;35.33;;;20.10;;
3627;SDS011;1830;49.000;12.074;2024-01-06T03:59:23;31.53;;;19.40;;
3627;SDS011;1830;49.000;12.074;2024-01-06T04:01:49;31.77;;;21.03;;
3627;SDS011;1830;49.000;12.074;2024-01-06T04:04:16;34.60;;;19.73;;
3627;SDS011;1830;49.000;12.074;2024-01-06T04:06:44;34.93;;;18.97;;
3627;SDS011;1830;49.000;12.074;2024-01-06T04:09:11;33.73;;;19.40;;
3627;SDS011;1830;49.000;12.074;2024-01-06T04:11:38;37.80;;;18.80;;
3627;SDS011;1830;49.000;12.074;2024-01-06T04:14:04;37.07;;;19.53;;
3627;SDS011;1830;49.000;12.074;2024-01-06T04:16:31;33.43;;;19.17;;
3627;SDS011;1830;49.000;12.074;2024-01-06T04:18:58;29.43;;;19.57;;
3627;SDS011;1830;49.000;12.074;2024-01-06T04:21:25;27.40;;;18.23;;
3627;SDS011;1830;49.000;12.074;2024-01-06T04:23:53;29.57;;;18.03;;
3627;SDS011;1830;49.000;12.074;2024-01-06T04:26:21;29.17;;;18.47;;
3627;SDS011;1830;49.000;12.074;2024-01-06T04:28:47;29.20;;;18.43;;
3627;SDS011;1830;49.000;12.074;2024-01-06T04:31:14;36.40;;;17.97;;
3627;SDS011;1830;49.000;12.074;2024-01-06T04:33:41;30.83;;;16.77;;
3627;SDS011;1830;49.000;12.074;2024-01-06T04:36:08;33.13;;;17.47;;
3627;SDS011;1830;49.000;12.074;2024-01-06T04:38:34;32.07;;;16.03;;
3627;SDS011;1830;49.000;12.074;2024-01-06T04:41:02;32.57;;;16.87;;
3627;SDS011;1830;49.000;12.074;2024-01-06T04:43:29;28.57;;;17.77;;
3627;SDS011;1830;49.000;12.074;2024-01-06T04:45:56;30.37;;;17.53;;
3627;SDS011;1830;49.000;12.074;2024-01-06T04:48:23;29.03;;;17.03;;
3627;SDS011;1830;49.000;12.074;2024-01-06T04:50:50;28.63;;;17.43;;
3627;SDS011;1830;49.000;12.074;2024-01-06T04:53:17;35.83;;;16.70;;
3627;SDS011;1830;49.000;12.074;2024-01-06T04:55:43;29.37;;;17.83;;
3627;SDS011;1830;49.000;12.074;2024-01-06T04:58:11;32.13;;;17.10;;
3627;SDS011;1830;49.000;12.074;2024-01-06T05:00:38;29.93;;;17.10;;
3627;SDS011;1830;49.000;12.074;2024-01-06T05:03:05;26.00;;;17.27;;
3627;SDS011;1830;49.000;12.074;2024-01-06T05:05:32;21.10;;;15.20;;
3627;SDS011;1830;49.000;12.074;2024-01-06T05:08:00;34.80;;;17.67;;
3627;SDS011;1830;49.000;12.074;2024-01-06T05:10:28;26.07;;;16.37;;
3627;SDS011;1830;49.000;12.074;2024-01-06T05:12:55;26.43;;;17.00;;
3627;SDS011;1830;49.000;12.074;2024-01-06T05:15:23;29.10;;;18.47;;
3627;SDS011;1830;49.000;12.074;2024-01-06T05:17:49;28.80;;;16.83;;
3627;SDS011;1830;49.000;12.074;2024-01-06T05:20:16;25.17;;;16.50;;
3627;SDS011;1830;49.000;12.074;2024-01-06T05:22:43;28.03;;;16.53;;
3627;SDS011;1830;49.000;12.074;2024-01-06T05:25:10;30.10;;;18.43;;
3627;SDS011;1830;49.000;12.074;2024-01-06T05:27:36;28.97;;;16.57;;
3627;SDS011;1830;49.000;12.074;2024-01-06T05:30:03;28.90;;;18.93;;
3627;SDS011;1830;49.000;12.074;2024-01-06T05:32:32;26.70;;;17.30;;
3627;SDS011;1830;49.000;12.074;2024-01-06T05:34:59;30.03;;;18.37;;
3627;SDS011;1830;49.000;12.074;2024-01-06T05:37:26;35.27;;;17.70;;
3627;SDS011;1830;49.000;12.074;2024-01-06T05:39:53;30.10;;;18.07;;
3627;SDS011;1830;49.000;12.074;2024-01-06T05:42:20;37.87;;;17.97;;
3627;SDS011;1830;49.000;12.074;2024-01-06T05:44:47;36.90;;;16.97;;
3627;SDS011;1830;49.000;12.074;2024-01-06T05:47:14;32.20;;;20.13;;
3627;SDS011;1830;49.000;12.074;2024-01-06T05:49:43;27.33;;;18.30;;
3627;SDS011;1830;49.000;12.074;2024-01-06T05:52:10;24.67;;;15.90;;
3627;SDS011;1830;49.000;12.074;2024-01-06T05:54:39;27.50;;;17.40;;
3627;SDS011;1830;49.000;12.074;2024-01-06T05:57:07;25.03;;;16.40;;
3627;SDS011;1830;49.000;12.074;2024-01-06T05:59:34;26.70;;;17.80;;
3627;SDS011;1830;49.000;12.074;2024-01-06T06:02:01;27.97;;;15.60;;
3627;SDS011;1830;49.000;12.074;2024-01-06T06:04:27;32.60;;;16.80;;
3627;SDS011;1830;49.000;12.074;2024-01-06T06:06:57;23.40;;;15.40;;
3627;SDS011;1830;49.000;12.074;2024-01-06T06:09:35;31.03;;;16.50;;
3627;SDS011;1830;49.000;12.074;2024-01-06T06:12:05;18.70;;;13.43;;
3627;SDS011;1830;49.000;12.074;2024-01-06T06:14:44;35.50;;;14.60;;
3627;SDS011;1830;49.000;12.074;2024-01-06T06:17:21;18.30;;;12.60;;
3627;SDS011;1830;49.000;12.074;2024-01-06T06:19:48;22.73;;;11.90;;
3627;SDS011;1830;49.000;12.074;2024-01-06T06:22:16;17.80;;;12.00;;
3627;SDS011;1830;49.000;12.074;2024-01-06T06:24:49;18.07;;;11.53;;
3627;SDS011;1830;49.000;12.074;2024-01-06T06:27:15;23.67;;;12.00;;
3627;SDS011;1830;49.000;12.074;2024-01-06T06:29:42;22.40;;;12.33;;
3627;SDS011;1830;49.000;12.074;2024-01-06T06:32:09;18.60;;;10.97;;
3627;SDS011;1830;49.000;12.074;2024-01-06T06:34:35;21.60;;;11.80;;
3627;SDS011;1830;49.000;12.074;2024-01-06T06:37:02;16.13;;;11.23;;
3627;SDS011;1830;49.000;12.074;2024-01-06T06:39:31;35.13;;;12.37;;
3627;SDS011;1830;49.000;12.074;2024-01-06T06:42:00;18.63;;;12.27;;
3627;SDS011;1830;49.000;12.074;2024-01-06T06:44:27;24.60;;;13.70;;
3627;SDS011;1830;49.000;12.074;2024-01-06T06:46:54;19.40;;;12.50;;
3627;SDS011;1830;49.000;12.074;2024-01-06T06:49:21;30.43;;;13.20;;
3627;SDS011;1830;49.000;12.074;2024-01-06T06:51:48;23.37;;;13.23;;
3627;SDS011;1830;49.000;12.074;2024-01-06T06:54:15;20.50;;;13.20;;
3627;SDS011;1830;49.000;12.074;2024-01-06T06:56:43;28.47;;;13.20;;
3627;SDS011;1830;49.000;12.074;2024-01-06T06:59:13;25.53;;;12.60;;
3627;SDS011;1830;49.000;12.074;2024-01-06T07:01:40;19.30;;;11.90;;
3627;SDS011;1830;49.000;12.074;2024-01-06T07:04:06;20.77;;;10.93;;
3627;SDS011;1830;49.000;12.074;2024-01-06T07:06:33;23.00;;;11.40;;
3627;SDS011;1830;49.000;12.074;2024-01-06T07:09:00;22.33;;;11.20;;
3627;SDS011;1830;49.000;12.074;2024-01-06T07:11:27;20.93;;;12.10;;
3627;SDS011;1830;49.000;12.074;2024-01-06T07:13:56;22.87;;;13.27;;
3627;SDS011;1830;49.000;12.074;2024-01-06T07:16:23;32.10;;;18.80;;
3627;SDS011;1830;49.000;12.074;2024-01-06T07:18:49;18.50;;;11.87;;
3627;SDS011;1830;49.000;12.074;2024-01-06T07:21:16;22.33;;;11.27;;
3627;SDS011;1830;49.000;12.074;2024-01-06T07:23:43;18.90;;;12.97;;
3627;SDS011;1830;49.000;12.074;2024-01-06T07:26:10;25.13;;;15.00;;
3627;SDS011;1830;49.000;12.074;2024-01-06T07:28:42;21.90;;;13.47;;
3627;SDS011;1830;49.000;12.074;2024-01-06T07:31:11;21.23;;;11.50;;
3627;SDS011;1830;49.000;12.074;2024-01-06T07:33:37;15.17;;;11.60;;
3627;SDS011;1830;49.000;12.074;2024-01-06T07:36:05;15.33;;;11.30;;
3627;SDS011;1830;49.000;12.074;2024-01-06T07:38:32;17.80;;;12.77;;
3627;SDS011;1830;49.000;12.074;2024-01-06T07:40:58;17.13;;;11.70;;
3627;SDS011;1830;49.000;12.074;2024-01-06T07:43:25;23.23;;;11.67;;
3627;SDS011;1830;49.000;12.074;2024-01-06T07:45:52;25.50;;;13.97;;
3627;SDS011;1830;49.000;12.074;2024-01-06T07:48:20;23.13;;;14.27;;
3627;SDS011;1830;49.000;12.074;2024-01-06T07:50:47;19.20;;;13.30;;
3627;SDS011;1830;49.000;12.074;2024-01-06T07:53:14;20.50;;;13.00;;
3627;SDS011;1830;49.000;12.074;2024-01-06T07:55:42;23.57;;;12.97;;
3627;SDS011;1830;49.000;12.074;2024-01-06T07:58:08;20.77;;;12.07;;
3627;SDS011;1830;49.000;12.074;2024-01-06T08:00:36;25.13;;;14.37;;
3627;SDS011;1830;49.000;12.074;2024-01-06T08:03:03;21.90;;;13.77;;
3627;SDS011;1830;49.000;12.074;2024-01-06T08:05:32;30.47;;;13.10;;
3627;SDS011;1830;49.000;12.074;2024-01-06T08:07:59;20.30;;;13.37;;
3627;SDS011;1830;49.000;12.074;2024-01-06T08:10:26;21.20;;;15.80;;
3627;SDS011;1830;49.000;12.074;2024-01-06T08:12:52;27.07;;;13.20;;
3627;SDS011;1830;49.000;12.074;2024-01-06T08:15:19;18.47;;;12.63;;
3627;SDS011;1830;49.000;12.074;2024-01-06T08:17:46;22.57;;;15.00;;
3627;SDS011;1830;49.000;12.074;2024-01-06T08:20:13;22.53;;;14.30;;
3627;SDS011;1830;49.000;12.074;2024-01-06T08:22:41;33.43;;;15.70;;
3627;SDS011;1830;49.000;12.074;2024-01-06T08:25:09;24.07;;;12.90;;
3627;SDS011;1830;49.000;12.074;2024-01-06T08:27:36;23.93;;;14.03;;
3627;SDS011;1830;49.000;12.074;2024-01-06T08:30:03;22.87;;;13.37;;
3627;SDS011;1830;49.000;12.074;2024-01-06T08:32:31;25.03;;;14.50;;
3627;SDS011;1830;49.000;12.074;2024-01-06T08:34:58;33.13;;;13.47;;
3627;SDS011;1830;49.000;12.074;2024-01-06T08:37:24;14.00;;;10.17;;
3627;SDS011;1830;49.000;12.074;2024-01-06T08:39:53;21.03;;;11.70;;
3627;SDS011;1830;49.000;12.074;2024-01-06T08:42:20;22.57;;;12.13;;
3627;SDS011;1830;49.000;12.074;2024-01-06T08:44:48;26.00;;;11.27;;
3627;SDS011;1830;49.000;12.074;2024-01-06T08:47:15;21.43;;;11.30;;
3627;SDS011;1830;49.000;12.074;2024-01-06T08:49:41;19.50;;;12.37;;
3627;SDS011;1830;49.000;12.074;2024-01-06T08:52:08;19.83;;;12.57;;
3627;SDS011;1830;49.000;12.074;2024-01-06T08:54:35;27.20;;;15.53;;
3627;SDS011;1830;49.000;12.074;2024-01-06T08:57:03;32.60;;;15.40;;
3627;SDS011;1830;49.000;12.074;2024-01-06T08:59:31;22.03;;;12.50;;
3627;SDS011;1830;49.000;12.074;2024-01-06T09:01:58;15.17;;;11.70;;
3627;SDS011;1830;49.000;12.074;2024-01-06T09:04:26;43.90;;;23.47;;
3627;SDS011;1830;49.000;12.074;2024-01-06T09:06:53;19.23;;;13.27;;
3627;SDS011;1830;49.000;12.074;2024-01-06T09:09:19;20.37;;;12.63;;
3627;SDS011;1830;49.000;12.074;2024-01-06T09:11:48;30.23;;;16.80;;
3627;SDS011;1830;49.000;12.074;2024-01-06T09:14:19;20.47;;;11.73;;
3627;SDS011;1830;49.000;12.074;2024-01-06T09:16:49;27.53;;;12.03;;
3627;SDS011;1830;49.000;12.074;2024-01-06T09:19:16;19.10;;;12.30;;
3627;SDS011;1830;49.000;12.074;2024-01-06T09:21:45;13.73;;;9.70;;
3627;SDS011;1830;49.000;12.074;2024-01-06T09:24:12;17.17;;;9.97;;
3627;SDS011;1830;49.000;12.074;2024-01-06T09:26:39;17.07;;;10.20;;
3627;SDS011;1830;49.000;12.074;2024-01-06T09:29:05;19.40;;;10.93;;
3627;SDS011;1830;49.000;12.074;2024-01-06T09:31:33;23.90;;;11.33;;
3627;SDS011;1830;49.000;12.074;2024-01-06T09:34:00;20.50;;;10.67;;
3627;SDS011;1830;49.000;12.074;2024-01-06T09:36:27;15.17;;;9.70;;
3627;SDS011;1830;49.000;12.074;2024-01-06T09:38:55;18.37;;;9.60;;
3627;SDS011;1830;49.000;12.074;2024-01-06T09:41:22;15.87;;;9.20;;
3627;SDS011;1830;49.000;12.074;2024-01-06T09:43:50;17.90;;;9.93;;
3627;SDS011;1830;49.000;12.074;2024-01-06T09:46:17;18.17;;;9.70;;
3627;SDS011;1830;49.000;12.074;2024-01-06T09:48:52;12.73;;;8.07;;
3627;SDS011;1830;49.000;12.074;2024-01-06T09:51:20;12.40;;;9.07;;
3627;SDS011;1830;49.000;12.074;2024-01-06T09:53:49;17.17;;;10.10;;
3627;SDS011;1830;49.000;12.074;2024-01-06T09:56:22;17.70;;;8.77;;
3627;SDS011;1830;49.000;12.074;2024-01-06T09:58:50;14.07;;;9.47;;
3627;SDS011;1830;49.000;12.074;2024-01-06T10:01:17;21.13;;;9.83;;
3627;SDS011;1830;49.000;12.074;2024-01-06T10:03:44;12.10;;;8.90;;
3627;SDS011;1830;49.000;12.074;2024-01-06T10:06:12;17.53;;;9.00;;
3627;SDS011;1830;49.000;12.074;2024-01-06T10:08:41;16.13;;;9.07;;
3627;SDS011;1830;49.000;12.074;2024-01-06T10:11:08;18.73;;;10.43;;
3627;SDS011;1830;49.000;12.074;2024-01-06T10:13:35;23.20;;;12.13;;
3627;SDS011;1830;49.000;12.074;2024-01-06T10:16:03;24.80;;;12.30;;
3627;SDS011;1830;49.000;12.074;2024-01-06T10:18:30;18.37;;;11.90;;
3627;SDS011;1830;49.000;12.074;2024-01-06T10:20:57;18.77;;;11.70;;
3627;SDS011;1830;49.000;12.074;2024-01-06T10:23:27;22.83;;;12.63;;
3627;SDS011;1830;49.000;12.074;2024-01-06T10:25:54;21.17;;;10.20;;
3627;SDS011;1830;49.000;12.074;2024-01-06T10:28:21;18.73;;;10.10;;
3627;SDS011;1830;49.000;12.074;2024-01-06T10:30:49;23.80;;;10.00;;
3627;SDS011;1830;49.000;12.074;2024-01-06T10:33:18;15.50;;;9.80;;
3627;SDS011;1830;49.000;12.074;2024-01-06T10:35:45;15.97;;;8.93;;
3627;SDS011;1830;49.000;12.074;2024-01-06T10:38:12;75.77;;;34.83;;
3627;SDS011;1830;49.000;12.074;2024-01-06T10:40:46;18.60;;;9.40;;
3627;SDS011;1830;49.000;12.074;2024-01-06T10:43:22;28.53;;;13.00;;
3627;SDS011;1830;49.000;12.074;2024-01-06T10:45:51;13.17;;;8.00;;
3627;SDS011;1830;49.000;12.074;2024-01-06T10:48:19;24.73;;;10.77;;
3627;SDS011;1830;49.000;12.074;2024-01-06T10:50:48;11.17;;;7.63;;
3627;SDS011;1830;49.000;12.074;2024-01-06T10:53:16;18.00;;;8.30;;
3627;SDS011;1830;49.000;12.074;2024-01-06T10:55:44;16.43;;;9.13;;
3627;SDS011;1830;49.000;12.074;2024-01-06T10:58:15;14.47;;;8.80;;
3627;SDS011;1830;49.000;12.074;2024-01-06T11:00:43;12.47;;;7.50;;
3627;SDS011;1830;49.000;12.074;2024-01-06T11:03:10;22.33;;;9.00;;
3627;SDS011;1830;49.000;12.074;2024-01-06T11:05:39;15.33;;;8.20;;
3627;SDS011;1830;49.000;12.074;2024-01-06T11:08:07;25.37;;;12.83;;
3627;SDS011;1830;49.000;12.074;2024-01-06T11:10:35;14.33;;;9.00;;
3627;SDS011;1830;49.000;12.074;2024-01-06T11:13:07;15.00;;;8.30;;
3627;SDS011;1830;49.000;12.074;2024-01-06T11:15:39;16.50;;;10.40;;
3627;SDS011;1830;49.000;12.074;2024-01-06T11:18:06;20.60;;;9.20;;
3627;SDS011;1830;49.000;12.074;2024-01-06T11:20:34;19.10;;;11.57;;
3627;SDS011;1830;49.000;12.074;2024-01-06T11:25:44;14.30;;;7.83;;
3627;SDS011;1830;49.000;12.074;2024-01-06T11:28:12;17.23;;;11.20;;
3627;SDS011;1830;49.000;12.074;2024-01-06T11:30:39;16.77;;;11.63;;
3627;SDS011;1830;49.000;12.074;2024-01-06T11:33:06;20.80;;;12.57;;
3627;SDS011;1830;49.000;12.074;2024-01-06T11:35:36;19.33;;;10.57;;
3627;SDS011;1830;49.000;12.074;2024-01-06T11:38:06;17.73;;;7.50;;
3627;SDS011;1830;49.000;12.074;2024-01-06T11:40:33;17.30;;;10.23;;
3627;SDS011;1830;49.000;12.074;2024-01-06T11:43:09;34.83;;;8.60;;
3627;SDS011;1830;49.000;12.074;2024-01-06T11:45:38;12.97;;;7.80;;
3627;SDS011;1830;49.000;12.074;2024-01-06T11:48:07;12.60;;;6.60;;
3627;SDS011;1830;49.000;12.074;2024-01-06T11:50:37;15.40;;;7.43;;
3627;SDS011;1830;49.000;12.074;2024-01-06T11:53:05;16.60;;;7.60;;
3627;SDS011;1830;49.000;12.074;2024-01-06T11:55:38;12.33;;;7.20;;
3627;SDS011;1830;49.000;12.074;2024-01-06T11:58:05;12.20;;;7.30;;
3627;SDS011;1830;49.000;12.074;2024-01-06T12:00:32;12.37;;;7.03;;
3627;SDS011;1830;49.000;12.074;2024-01-06T12:03:01;10.97;;;6.67;;
3627;SDS011;1830;49.000;12.074;2024-01-06T12:05:28;16.50;;;5.40;;
3627;SDS011;1830;49.000;12.074;2024-01-06T12:07:55;21.97;;;7.17;;
3627;SDS011;1830;49.000;12.074;2024-01-06T12:10:23;13.03;;;7.63;;
3627;SDS011;1830;49.000;12.074;2024-01-06T12:12:57;7.93;;;7.10;;
3627;SDS011;1830;49.000;12.074;2024-01-06T12:15:25;19.33;;;7.37;;
3627;SDS011;1830;49.000;12.074;2024-01-06T12:17:53;19.40;;;6.70;;
3627;SDS011;1830;49.000;12.074;2024-01-06T12:20:22;16.87;;;8.17;;
3627;SDS011;1830;49.000;12.074;2024-01-06T12:22:49;11.03;;;6.87;;
3627;SDS011;1830;49.000;12.074;2024-01-06T12:25:17;13.53;;;7.60;;
3627;SDS011;1830;49.000;12.074;2024-01-06T12:27:46;9.30;;;6.40;;
3627;SDS011;1830;49.000;12.074;2024-01-06T12:30:14;17.10;;;7.27;;
3627;SDS011;1830;49.000;12.074;2024-01-06T12:32:44;12.97;;;7.50;;
3627;SDS011;1830;49.000;12.074;2024-01-06T12:35:12;12.30;;;7.23;;
3627;SDS011;1830;49.000;12.074;2024-01-06T12:37:41;9.57;;;5.60;;
3627;SDS011;1830;49.000;12.074;2024-01-06T12:40:09;8.43;;;6.40;;
3627;SDS011;1830;49.000;12.074;2024-01-06T12:42:36;14.67;;;7.90;;
3627;SDS011;1830;49.000;12.074;2024-01-06T12:45:04;12.80;;;8.20;;
3627;SDS011;1830;49.000;12.074;2024-01-06T12:47:32;17.93;;;8.37;;
3627;SDS011;1830;49.000;12.074;2024-01-06T12:49:59;15.73;;;8.80;;
3627;SDS011;1830;49.000;12.074;2024-01-06T12:52:26;16.00;;;8.20;;
3627;SDS011;1830;49.000;12.074;2024-01-06T12:54:54;18.17;;;8.20;;
3627;SDS011;1830;49.000;12.074;2024-01-06T12:57:21;14.63;;;8.10;;
3627;SDS011;1830;49.000;12.074;2024-01-06T12:59:48;14.43;;;7.20;;
3627;SDS011;1830;49.000;12.074;2024-01-06T13:02:15;9.60;;;6.97;;
3627;SDS011;1830;49.000;12.074;2024-01-06T13:04:42;15.40;;;9.37;;
3627;SDS011;1830;49.000;12.074;2024-01-06T13:07:09;6.83;;;5.90;;
3627;SDS011;1830;49.000;12.074;2024-01-06T13:09:35;12.53;;;7.50;;
3627;SDS011;1830;49.000;12.074;2024-01-06T13:12:05;10.20;;;7.43;;
3627;SDS011;1830;49.000;12.074;2024-01-06T13:14:32;15.20;;;8.30;;
3627;SDS011;1830;49.000;12.074;2024-01-06T13:16:59;20.90;;;6.77;;
3627;SDS011;1830;49.000;12.074;2024-01-06T13:19:31;16.80;;;8.40;;
3627;SDS011;1830;49.000;12.074;2024-01-06T13:22:06;18.43;;;11.20;;
3627;SDS011;1830;49.000;12.074;2024-01-06T13:24:32;26.17;;;10.60;;
3627;SDS011;1830;49.000;12.074;2024-01-06T13:27:00;19.50;;;12.03;;
3627;SDS011;1830;49.000;12.074;2024-01-06T13:29:29;18.70;;;11.87;;
3627;SDS011;1830;49.000;12.074;2024-01-06T13:31:56;12.17;;;8.40;;
3627;SDS011;1830;49.000;12.074;2024-01-06T13:34:24;14.30;;;9.97;;
3627;SDS011;1830;49.000;12.074;2024-01-06T13:36:51;9.03;;;6.50;;
3627;SDS011;1830;49.000;12.074;2024-01-06T13:39:18;23.67;;;8.30;;
3627;SDS011;1830;49.000;12.074;2024-01-06T13:41:46;11.60;;;6.87;;
3627;SDS011;1830;49.000;12.074;2024-01-06T13:44:13;22.13;;;8.60;;
3627;SDS011;1830;49.000;12.074;2024-01-06T13:46:41;12.70;;;7.43;;
3627;SDS011;1830;49.000;12.074;2024-01-06T13:49:09;14.43;;;8.03;;
3627;SDS011;1830;49.000;12.074;2024-01-06T13:51:36;10.73;;;7.03;;
3627;SDS011;1830;49.000;12.074;2024-01-06T13:54:09;9.67;;;6.53;;
3627;SDS011;1830;49.000;12.074;2024-01-06T13:56:37;28.07;;;17.80;;
3627;SDS011;1830;49.000;12.074;2024-01-06T13:59:03;15.23;;;7.83;;
3627;SDS011;1830;49.000;12.074;2024-01-06T14:01:30;19.83;;;8.40;;
3627;SDS011;1830;49.000;12.074;2024-01-06T14:03:59;14.97;;;7.63;;
3627;SDS011;1830;49.000;12.074;2024-01-06T14:06:26;10.00;;;6.60;;
3627;SDS011;1830;49.000;12.074;2024-01-06T14:08:55;15.37;;;9.07;;
3627;SDS011;1830;49.000;12.074;2024-01-06T14:11:21;13.30;;;8.30;;
3627;SDS011;1830;49.000;12.074;2024-01-06T14:13:48;13.13;;;7.40;;
3627;SDS011;1830;49.000;12.074;2024-01-06T14:16:16;14.20;;;10.47;;
3627;SDS011;1830;49.000;12.074;2024-01-06T14:18:43;7.67;;;5.03;;
3627;SDS011;1830;49.000;12.074;2024-01-06T14:21:12;11.93;;;7.67;;
3627;SDS011;1830;49.000;12.074;2024-01-06T14:23:39;25.63;;;14.37;;
3627;SDS011;1830;49.000;12.074;2024-01-06T14:26:06;35.40;;;18.90;;
3627;SDS011;1830;49.000;12.074;2024-01-06T14:28:33;10.00;;;6.70;;
3627;SDS011;1830;49.000;12.074;2024-01-06T14:31:00;23.40;;;14.73;;
3627;SDS011;1830;49.000;12.074;2024-01-06T14:33:27;19.90;;;11.70;;
3627;SDS011;1830;49.000;12.074;2024-01-06T14:35:53;10.03;;;6.03;;
3627;SDS011;1830;49.000;12.074;2024-01-06T14:38:21;15.10;;;9.23;;
3627;SDS011;1830;49.000;12.074;2024-01-06T14:40:48;13.23;;;7.40;;
3627;SDS011;1830;49.000;12.074;2024-01-06T14:43:15;11.83;;;7.20;;